Time;durP1;ratioP1;P1;durP2;ratioP2;P2;SDS_P1;SDS_P2;PMS_P1;PMS_P2;Temp;Humidity;BMP_temperature;BMP_pressure;BME280_temperature;BME280_humidity;BME280_pressure;Samples;Min_cycle;Max_cycle;Signal;HPM_P1;HPM_P2
2022/08/04 00:01:56;;;;;;;;;;;21.70;97.20;;;;;;4942861;29;20145;-86
2022/08/04 00:04:29;;;;;;;;;;;21.60;97.30;;;;;;4971780;28;19926;-86
2022/08/04 00:07:06;;;;;;;;;;;21.60;97.20;;;;;;4959113;28;19930;-86
2022/08/04 00:09:46;;;;;;;;;;;21.50;97.10;;;;;;4987497;28;19929;-86
2022/08/04 00:12:15;;;;;;;;;;;21.50;97.00;;;;;;4961821;28;19933;-86
2022/08/04 00:14:48;;;;;;;;;;;21.40;96.50;;;;;;4975650;28;19930;-86
2022/08/04 00:17:24;;;;;;;;;;;21.40;96.30;;;;;;4963290;28;20716;-86
2022/08/04 00:19:54;;;;;;;;;;;21.40;96.00;;;;;;4976921;28;19930;-86
2022/08/04 00:22:25;;;;;;;;;;;21.80;96.00;;;;;;4947890;28;19931;-87
2022/08/04 00:24:54;;;;;;;;;;;21.30;95.70;;;;;;4954784;28;19926;-87
2022/08/04 00:27:22;;;;;;;;;;;21.30;95.50;;;;;;4975795;28;19937;-86
2022/08/04 00:29:50;;;;;;;;;;;21.30;96.10;;;;;;4965646;28;19935;-87
2022/08/04 00:32:20;;;;;;;;;;;21.30;95.30;;;;;;4976832;28;20714;-86
2022/08/04 00:35:01;;;;;;;;;;;21.30;95.20;;;;;;4956818;28;20482;-86
2022/08/04 00:37:29;;;;;;;;;;;22.00;95.20;;;;;;4957518;28;19926;-86
2022/08/04 00:39:57;;;;;;;;;;;21.40;95.00;;;;;;4976123;28;19937;-86
2022/08/04 00:42:46;;;;;;;;;;;21.40;94.90;;;;;;4959500;28;19926;-87
2022/08/04 00:45:28;;;;;;;;;;;21.40;94.90;;;;;;4978114;28;19933;-85
2022/08/04 00:48:25;;;;;;;;;;;21.40;94.60;;;;;;4950254;29;19937;-87
2022/08/04 00:51:04;;;;;;;;;;;21.40;94.00;;;;;;4960425;28;19926;-87
2022/08/04 00:53:41;;;;;;;;;;;21.40;94.00;;;;;;4955651;29;20604;-87
2022/08/04 00:56:19;;;;;;;;;;;21.40;93.80;;;;;;4958170;28;19937;-86
2022/08/04 00:58:53;;;;;;;;;;;21.40;93.40;;;;;;4960565;28;19936;-87
2022/08/04 01:01:27;;;;;;;;;;;21.40;93.40;;;;;;4975845;28;19934;-86
2022/08/04 01:03:56;;;;;;;;;;;21.40;93.30;;;;;;4948397;28;20397;-86
2022/08/04 01:06:32;;;;;;;;;;;20.90;92.70;;;;;;4975548;28;20120;-86
2022/08/04 01:09:03;;;;;;;;;;;21.40;93.00;;;;;;4982786;28;19933;-86
2022/08/04 01:11:46;;;;;;;;;;;21.40;92.60;;;;;;4981755;28;19937;-87
2022/08/04 01:14:24;;;;;;;;;;;21.40;92.50;;;;;;4956551;29;19926;-86
2022/08/04 01:16:54;;;;;;;;;;;21.30;92.50;;;;;;4972577;28;19939;-86
2022/08/04 01:19:43;;;;;;;;;;;21.30;92.40;;;;;;4959662;28;19926;-85
2022/08/04 01:22:27;;;;;;;;;;;21.20;92.40;;;;;;4976190;28;19937;-86
2022/08/04 01:25:08;;;;;;;;;;;21.20;92.70;;;;;;4972244;28;19926;-86
2022/08/04 01:27:40;;;;;;;;;;;21.10;92.80;;;;;;4964146;28;19937;-86
2022/08/04 01:30:08;;;;;;;;;;;21.10;93.00;;;;;;4976041;28;20002;-86
2022/08/04 01:32:37;;;;;;;;;;;21.00;93.10;;;;;;4975396;28;19926;-86
2022/08/04 01:35:16;;;;;;;;;;;21.00;93.20;;;;;;4986674;28;19925;-86
2022/08/04 01:38:10;;;;;;;;;;;20.80;93.00;;;;;;4945300;28;19926;-86
2022/08/04 01:40:51;;;;;;;;;;;20.90;93.00;;;;;;4972199;28;19937;-86
2022/08/04 01:43:19;;;;;;;;;;;20.80;92.90;;;;;;4986305;28;19926;-87
2022/08/04 01:45:57;;;;;;;;;;;20.80;92.90;;;;;;4979783;28;20527;-85
2022/08/04 01:48:29;;;;;;;;;;;20.80;92.80;;;;;;4981379;28;19927;-86
2022/08/04 01:51:05;;;;;;;;;;;20.90;92.80;;;;;;4980847;28;19933;-86
2022/08/04 01:53:34;;;;;;;;;;;21.20;92.90;;;;;;4981888;28;19926;-86
2022/08/04 01:56:03;;;;;;;;;;;20.70;92.70;;;;;;4981808;28;19930;-86
2022/08/04 01:58:31;;;;;;;;;;;20.80;92.50;;;;;;4966806;28;19937;-86
2022/08/04 02:01:03;;;;;;;;;;;20.80;92.50;;;;;;4983993;28;19933;-86
2022/08/04 02:03:39;;;;;;;;;;;20.80;92.30;;;;;;4980500;28;20282;-86
2022/08/04 02:06:42;;;;;;;;;;;19.20;91.80;;;;;;4961542;28;19934;-86
2022/08/04 02:09:22;;;;;;;;;;;20.70;92.10;;;;;;4981500;28;19926;-86
2022/08/04 02:12:17;;;;;;;;;;;20.80;92.10;;;;;;4980363;28;20337;-86
2022/08/04 02:14:55;;;;;;;;;;;20.80;91.90;;;;;;4970800;28;19933;-86
2022/08/04 02:17:22;;;;;;;;;;;20.70;91.90;;;;;;4951675;28;19933;-86
2022/08/04 02:20:13;;;;;;;;;;;20.70;92.40;;;;;;4979573;28;19926;-87
2022/08/04 02:22:52;;;;;;;;;;;20.80;91.90;;;;;;4979177;28;20018;-87
2022/08/04 02:25:23;;;;;;;;;;;20.80;91.90;;;;;;4979694;28;20459;-86
2022/08/04 02:27:50;;;;;;;;;;;20.80;91.90;;;;;;4977493;28;19934;-86
2022/08/04 02:30:32;;;;;;;;;;;20.80;91.90;;;;;;4978940;28;19934;-86
2022/08/04 02:33:02;;;;;;;;;;;20.80;91.80;;;;;;4962200;28;19926;-86
2022/08/04 02:35:31;;;;;;;;;;;20.80;91.80;;;;;;4977183;28;20318;-86
2022/08/04 02:38:18;;;;;;;;;;;20.80;91.70;;;;;;4978768;28;19927;-85
2022/08/04 02:40:54;;;;;;;;;;;20.80;91.90;;;;;;4947345;28;19941;-86
2022/08/04 02:43:26;;;;;;;;;;;20.80;92.00;;;;;;4973144;28;19926;-87
2022/08/04 02:46:18;;;;;;;;;;;20.80;92.00;;;;;;4965826;28;20579;-86
2022/08/04 02:48:47;;;;;;;;;;;20.70;92.10;;;;;;4981280;28;19930;-86
2022/08/04 02:51:15;;;;;;;;;;;20.60;92.10;;;;;;4948133;28;19943;-86
2022/08/04 02:53:44;;;;;;;;;;;20.60;92.20;;;;;;4963379;28;19930;-87
2022/08/04 02:56:14;;;;;;;;;;;20.60;92.20;;;;;;4979513;28;19937;-86
2022/08/04 02:58:43;;;;;;;;;;;20.60;92.10;;;;;;4952044;28;19926;-87
2022/08/04 03:01:10;;;;;;;;;;;20.60;92.10;;;;;;4949797;28;19926;-86
2022/08/04 03:03:58;;;;;;;;;;;20.50;92.00;;;;;;4977656;28;19953;-86
2022/08/04 03:06:52;;;;;;;;;;;20.50;92.00;;;;;;4962380;28;19930;-86
2022/08/04 03:09:39;;;;;;;;;;;20.50;91.90;;;;;;4969918;28;19925;-87
2022/08/04 03:12:22;;;;;;;;;;;20.40;91.90;;;;;;4979172;28;20042;-87
2022/08/04 03:14:53;;;;;;;;;;;20.40;91.70;;;;;;4968556;28;19926;-86
2022/08/04 03:17:41;;;;;;;;;;;20.40;91.60;;;;;;4979055;28;19922;-86
2022/08/04 03:20:25;;;;;;;;;;;20.30;91.40;;;;;;4958822;29;19937;-86
2022/08/04 03:23:08;;;;;;;;;;;20.30;91.40;;;;;;4954080;28;19942;-86
2022/08/04 03:25:53;;;;;;;;;;;20.30;91.40;;;;;;4978111;28;19926;-87
2022/08/04 03:28:42;;;;;;;;;;;20.30;91.40;;;;;;4983186;28;19926;-87
2022/08/04 03:31:26;;;;;;;;;;;20.20;91.50;;;;;;4943004;29;19927;-87
2022/08/04 03:34:03;;;;;;;;;;;20.20;91.40;;;;;;4962554;28;19926;-87
2022/08/04 03:36:49;;;;;;;;;;;20.10;91.30;;;;;;4972428;28;19990;-86
2022/08/04 03:39:26;;;;;;;;;;;20.10;91.40;;;;;;4961077;28;19930;-87
2022/08/04 03:41:54;;;;;;;;;;;20.10;91.30;;;;;;4972026;28;19926;-86
2022/08/04 03:44:44;;;;;;;;;;;20.00;91.20;;;;;;4974269;28;20531;-86
2022/08/04 03:47:30;;;;;;;;;;;20.00;91.30;;;;;;4979341;28;19925;-86
2022/08/04 03:50:17;;;;;;;;;;;20.00;91.20;;;;;;4978152;28;19930;-87
2022/08/04 03:55:50;;;;;;;;;;;19.90;91.20;;;;;;4977881;28;20013;-86
2022/08/04 03:58:21;;;;;;;;;;;19.90;91.30;;;;;;4976992;28;20274;-87
2022/08/04 04:01:03;;;;;;;;;;;19.90;91.30;;;;;;4950718;28;19938;-87
2022/08/04 04:03:49;;;;;;;;;;;19.90;91.20;;;;;;4978021;28;19926;-87
2022/08/04 04:06:28;;;;;;;;;;;19.90;91.20;;;;;;4977084;28;20309;-86
2022/08/04 04:09:20;;;;;;;;;;;19.70;91.10;;;;;;4983432;28;19926;-86
2022/08/04 04:12:01;;;;;;;;;;;19.90;91.10;;;;;;4980710;28;20001;-86
2022/08/04 04:14:29;;;;;;;;;;;19.60;91.00;;;;;;4971280;28;19926;-86
2022/08/04 04:17:16;;;;;;;;;;;19.70;91.40;;;;;;4946100;28;19937;-86
2022/08/04 04:19:46;;;;;;;;;;;19.60;91.00;;;;;;4979255;28;19930;-86
2022/08/04 04:22:25;;;;;;;;;;;19.60;91.10;;;;;;4977619;28;19926;-86
2022/08/04 04:25:02;;;;;;;;;;;19.50;91.20;;;;;;4946264;28;19937;-86
2022/08/04 04:27:42;;;;;;;;;;;19.40;91.30;;;;;;4971312;28;19937;-86
2022/08/04 04:30:29;;;;;;;;;;;19.30;91.40;;;;;;4977267;28;19933;-85
2022/08/04 04:33:19;;;;;;;;;;;19.20;91.50;;;;;;4977916;28;19930;-86
2022/08/04 04:36:11;;;;;;;;;;;19.20;91.60;;;;;;4958704;28;19934;-87
2022/08/04 04:38:57;;;;;;;;;;;19.10;91.70;;;;;;4965279;28;20274;-86
2022/08/04 04:41:40;;;;;;;;;;;19.00;91.70;;;;;;4977352;28;19934;-86
2022/08/04 04:44:27;;;;;;;;;;;19.00;91.90;;;;;;4977310;28;19933;-87
2022/08/04 04:47:16;;;;;;;;;;;19.00;91.90;;;;;;4945546;28;19937;-86
2022/08/04 04:50:22;;;;;;;;;;;18.90;92.00;;;;;;4967841;28;19938;-86
2022/08/04 04:53:18;;;;;;;;;;;18.90;92.20;;;;;;4964143;28;19926;-86
2022/08/04 04:55:50;;;;;;;;;;;18.80;92.50;;;;;;4975238;28;19926;-86
2022/08/04 04:58:18;;;;;;;;;;;18.80;92.60;;;;;;4953055;28;19930;-86
2022/08/04 05:01:05;;;;;;;;;;;18.80;92.60;;;;;;4975273;28;19933;-86
2022/08/04 05:03:58;;;;;;;;;;;18.80;92.80;;;;;;4959915;28;19934;-86
2022/08/04 05:06:52;;;;;;;;;;;18.80;92.90;;;;;;4957214;28;20728;-87
2022/08/04 05:09:45;;;;;;;;;;;18.70;93.00;;;;;;4966954;28;19933;-86
2022/08/04 05:12:12;;;;;;;;;;;18.70;93.20;;;;;;4964390;28;19946;-87
2022/08/04 05:15:02;;;;;;;;;;;18.70;93.30;;;;;;4948413;28;19926;-86
2022/08/04 05:17:36;;;;;;;;;;;18.70;93.30;;;;;;4976442;28;19926;-85
2022/08/04 05:20:08;;;;;;;;;;;18.70;93.40;;;;;;4959020;28;19930;-88
2022/08/04 05:22:39;;;;;;;;;;;18.80;93.50;;;;;;4969394;28;20416;-86
2022/08/04 05:25:11;;;;;;;;;;;18.80;93.30;;;;;;4956480;28;19926;-86
2022/08/04 05:27:41;;;;;;;;;;;18.80;93.40;;;;;;4947391;28;19926;-86
2022/08/04 05:30:10;;;;;;;;;;;18.70;93.60;;;;;;4962345;28;20386;-86
2022/08/04 05:32:54;;;;;;;;;;;19.20;93.80;;;;;;4958008;28;19927;-85
2022/08/04 05:35:35;;;;;;;;;;;18.90;93.40;;;;;;4975590;28;19930;-86
2022/08/04 05:38:25;;;;;;;;;;;18.90;93.70;;;;;;4964360;28;19930;-86
2022/08/04 05:40:53;;;;;;;;;;;18.90;94.10;;;;;;4621177;28;10000138;-87
2022/08/04 05:43:25;;;;;;;;;;;19.00;93.70;;;;;;4981421;28;19926;-86
2022/08/04 05:45:56;;;;;;;;;;;20.30;94.00;;;;;;4980736;28;19930;-86
2022/08/04 05:48:27;;;;;;;;;;;19.00;93.60;;;;;;4963240;28;20007;-86
2022/08/04 05:50:55;;;;;;;;;;;19.00;93.70;;;;;;4978561;28;19938;-86
2022/08/04 05:53:28;;;;;;;;;;;19.00;93.50;;;;;;4971487;28;19930;-86
2022/08/04 05:55:56;;;;;;;;;;;19.00;93.40;;;;;;4960905;28;19933;-87
2022/08/04 05:58:29;;;;;;;;;;;19.10;93.20;;;;;;4943597;29;19927;-86
2022/08/04 06:01:00;;;;;;;;;;;19.20;93.00;;;;;;4957277;28;19927;-85
2022/08/04 06:03:29;;;;;;;;;;;19.00;93.00;;;;;;4961875;28;19934;-87
2022/08/04 06:05:58;;;;;;;;;;;19.00;93.10;;;;;;4977584;28;19930;-87
2022/08/04 06:08:28;;;;;;;;;;;19.00;93.10;;;;;;4958364;28;19930;-86
2022/08/04 06:11:02;;;;;;;;;;;18.80;93.20;;;;;;4986412;28;19926;-86
2022/08/04 06:13:32;;;;;;;;;;;18.80;93.40;;;;;;4953130;28;19930;-89
2022/08/04 06:16:21;;;;;;;;;;;18.80;93.70;;;;;;4967784;28;19922;-86
2022/08/04 06:19:02;;;;;;;;;;;18.70;93.70;;;;;;4971892;28;19941;-86
2022/08/04 06:21:52;;;;;;;;;;;17.50;93.60;;;;;;4973325;28;19927;-86
2022/08/04 06:24:23;;;;;;;;;;;18.70;94.00;;;;;;4941892;28;19926;-86
2022/08/04 06:26:52;;;;;;;;;;;18.80;93.90;;;;;;4977984;28;19937;-86
2022/08/04 06:29:54;;;;;;;;;;;18.80;93.90;;;;;;4980104;28;20378;-87
2022/08/04 06:32:26;;;;;;;;;;;18.80;93.90;;;;;;4950370;28;19930;-87
2022/08/04 06:35:05;;;;;;;;;;;18.90;93.70;;;;;;4969380;28;19926;-85
2022/08/04 06:37:35;;;;;;;;;;;19.00;94.20;;;;;;4954251;28;20263;-85
2022/08/04 06:40:18;;;;;;;;;;;19.00;93.70;;;;;;4975025;28;19930;-85
2022/08/04 06:43:03;;;;;;;;;;;19.00;93.60;;;;;;4969649;28;19933;-85
2022/08/04 06:45:34;;;;;;;;;;;19.10;93.50;;;;;;4950630;28;19926;-87
2022/08/04 06:48:04;;;;;;;;;;;19.10;93.60;;;;;;4953936;28;20382;-84
2022/08/04 06:50:36;;;;;;;;;;;19.20;93.40;;;;;;4963533;28;19972;-84
2022/08/04 06:53:24;;;;;;;;;;;19.20;93.40;;;;;;4985824;28;19927;-83
2022/08/04 06:55:52;;;;;;;;;;;19.20;93.40;;;;;;4970455;28;20408;-84
2022/08/04 06:58:21;;;;;;;;;;;19.40;93.50;;;;;;4972411;28;19933;-84
2022/08/04 07:00:53;;;;;;;;;;;19.30;93.50;;;;;;4972114;28;20293;-84
2022/08/04 07:03:21;;;;;;;;;;;19.40;93.40;;;;;;4949633;28;20082;-84
2022/08/04 07:05:50;;;;;;;;;;;19.40;93.60;;;;;;4906111;28;1839421;-83
2022/08/04 07:08:21;;;;;;;;;;;19.50;93.30;;;;;;4974634;28;19930;-84
2022/08/04 07:10:49;;;;;;;;;;;19.50;93.40;;;;;;4964184;28;20381;-84
2022/08/04 07:13:17;;;;;;;;;;;19.50;93.50;;;;;;4973863;28;20129;-85
2022/08/04 07:15:46;;;;;;;;;;;19.50;93.20;;;;;;4973736;28;19930;-85
2022/08/04 07:18:14;;;;;;;;;;;19.50;93.10;;;;;;4974284;28;20305;-84
2022/08/04 07:20:44;;;;;;;;;;;19.50;93.00;;;;;;4976927;28;19933;-84
2022/08/04 07:23:16;;;;;;;;;;;19.60;92.60;;;;;;4978029;28;19926;-84
2022/08/04 07:25:50;;;;;;;;;;;19.60;92.40;;;;;;4976456;28;19926;-83
2022/08/04 07:28:38;;;;;;;;;;;19.60;92.40;;;;;;4974194;28;19930;-84
2022/08/04 07:31:08;;;;;;;;;;;19.60;92.50;;;;;;4970043;28;19930;-84
2022/08/04 07:33:37;;;;;;;;;;;19.60;92.50;;;;;;4964284;28;19942;-84
2022/08/04 07:36:04;;;;;;;;;;;19.60;92.60;;;;;;4959756;28;19926;-84
2022/08/04 07:38:40;;;;;;;;;;;19.70;92.60;;;;;;4965520;28;19930;-83
2022/08/04 07:41:22;;;;;;;;;;;19.70;92.70;;;;;;4960896;28;19932;-84
2022/08/04 07:44:06;;;;;;;;;;;19.80;92.60;;;;;;4958326;28;19926;-83
2022/08/04 07:46:35;;;;;;;;;;;19.80;92.70;;;;;;4957570;28;19957;-83
2022/08/04 07:49:03;;;;;;;;;;;19.80;92.70;;;;;;4957041;28;19931;-84
2022/08/04 07:51:31;;;;;;;;;;;19.80;92.80;;;;;;4959052;28;19952;-84
2022/08/04 07:53:59;;;;;;;;;;;19.90;92.70;;;;;;4946145;28;19930;-84
2022/08/04 07:56:28;;;;;;;;;;;19.90;92.70;;;;;;4946799;28;19930;-84
2022/08/04 07:58:55;;;;;;;;;;;19.90;92.50;;;;;;4963490;28;19937;-84
2022/08/04 08:01:23;;;;;;;;;;;19.90;92.30;;;;;;4962776;28;19934;-84
2022/08/04 08:03:52;;;;;;;;;;;20.00;92.40;;;;;;4964269;28;19938;-84
2022/08/04 08:06:20;;;;;;;;;;;20.00;92.30;;;;;;4963464;28;20416;-83
2022/08/04 08:09:05;;;;;;;;;;;20.10;92.20;;;;;;4964599;28;19945;-83
2022/08/04 08:11:41;;;;;;;;;;;20.20;92.00;;;;;;4964162;28;19941;-84
2022/08/04 08:14:29;;;;;;;;;;;20.30;92.10;;;;;;4948124;28;20500;-83
2022/08/04 08:17:01;;;;;;;;;;;20.30;91.60;;;;;;4961148;28;19934;-84
2022/08/04 08:19:30;;;;;;;;;;;20.20;91.30;;;;;;4961373;28;19935;-85
2022/08/04 08:21:58;;;;;;;;;;;20.10;91.60;;;;;;4964806;28;19934;-84
2022/08/04 08:24:28;;;;;;;;;;;20.10;91.70;;;;;;4963036;28;19930;-84
2022/08/04 08:26:56;;;;;;;;;;;20.10;91.60;;;;;;4964281;28;19937;-84
2022/08/04 08:29:24;;;;;;;;;;;20.20;91.30;;;;;;4966386;28;19926;-85
2022/08/04 08:31:53;;;;;;;;;;;20.20;90.90;;;;;;4953258;28;19949;-84
2022/08/04 08:34:29;;;;;;;;;;;20.30;90.90;;;;;;4965407;28;19934;-84
2022/08/04 08:37:17;;;;;;;;;;;20.30;91.10;;;;;;4962507;28;19957;-86
2022/08/04 08:39:51;;;;;;;;;;;20.30;90.80;;;;;;4965548;28;19934;-84
2022/08/04 08:42:24;;;;;;;;;;;20.40;90.70;;;;;;4964730;28;19938;-83
2022/08/04 08:45:10;;;;;;;;;;;20.40;90.80;;;;;;4964592;28;19930;-83
2022/08/04 08:47:44;;;;;;;;;;;20.50;90.70;;;;;;4962675;28;19927;-82
2022/08/04 08:50:59;;;;;;;;;;;20.60;90.20;;;;;;4963848;28;20201;-83
2022/08/04 08:53:39;;;;;;;;;;;20.60;90.40;;;;;;4964024;28;19937;-83
2022/08/04 08:56:16;;;;;;;;;;;20.70;90.20;;;;;;4960593;28;20191;-83
2022/08/04 08:58:52;;;;;;;;;;;20.80;90.20;;;;;;4960269;28;19934;-83
2022/08/04 09:01:30;;;;;;;;;;;20.90;89.20;;;;;;4976200;28;19957;-84
2022/08/04 09:04:16;;;;;;;;;;;21.00;89.20;;;;;;4962846;28;20405;-84
2022/08/04 09:06:56;;;;;;;;;;;21.00;89.10;;;;;;4943021;29;19941;-83
2022/08/04 09:09:46;;;;;;;;;;;21.00;89.00;;;;;;4943749;28;19927;-81
2022/08/04 09:12:21;;;;;;;;;;;21.10;88.60;;;;;;4945365;28;19935;-83
2022/08/04 09:14:58;;;;;;;;;;;21.20;88.50;;;;;;4926089;29;19957;-84
2022/08/04 09:17:34;;;;;;;;;;;21.30;88.20;;;;;;4941212;29;19945;-83
2022/08/04 09:20:06;;;;;;;;;;;21.40;87.80;;;;;;4941766;29;19942;-83
2022/08/04 09:22:42;;;;;;;;;;;21.60;87.60;;;;;;4942332;28;19930;-84
2022/08/04 09:25:12;;;;;;;;;;;21.70;87.20;;;;;;4941995;28;19927;-81
2022/08/04 09:27:40;;;;;;;;;;;21.90;86.90;;;;;;4944498;28;19927;-83
2022/08/04 09:30:09;;;;;;;;;;;21.90;86.60;;;;;;4944143;28;19930;-85
2022/08/04 09:32:47;;;;;;;;;;;22.00;85.90;;;;;;4942250;29;20563;-83
2022/08/04 09:38:50;;;;;;;;;;;22.20;85.90;;;;;;4958943;28;19934;-83
2022/08/04 09:41:22;;;;;;;;;;;22.20;85.20;;;;;;4926993;28;19934;-82
2022/08/04 09:44:09;;;;;;;;;;;22.40;85.00;;;;;;4941951;28;20302;-82
2022/08/04 09:47:02;;;;;;;;;;;22.50;84.80;;;;;;4942646;28;19934;-83
2022/08/04 09:49:35;;;;;;;;;;;22.60;84.20;;;;;;4940706;29;19935;-82
2022/08/04 09:52:09;;;;;;;;;;;22.80;83.70;;;;;;4924694;28;19950;-84
2022/08/04 09:55:00;;;;;;;;;;;23.00;83.20;;;;;;4924787;29;19930;-83
2022/08/04 09:57:40;;;;;;;;;;;23.10;82.30;;;;;;4942172;28;19934;-83
2022/08/04 10:00:09;;;;;;;;;;;23.00;82.20;;;;;;4926121;29;19931;-83
2022/08/04 10:02:41;;;;;;;;;;;23.20;82.30;;;;;;4939691;29;19930;-83
2022/08/04 10:05:13;;;;;;;;;;;23.10;82.40;;;;;;4948102;28;19934;-83
2022/08/04 10:08:01;;;;;;;;;;;23.10;82.10;;;;;;4963328;28;20011;-82
2022/08/04 10:10:50;;;;;;;;;;;23.10;81.80;;;;;;4965949;28;19934;-82
2022/08/04 10:13:25;;;;;;;;;;;23.10;81.10;;;;;;4968882;28;19949;-82
2022/08/04 10:16:08;;;;;;;;;;;23.10;82.30;;;;;;4946307;28;19938;-83
2022/08/04 10:18:56;;;;;;;;;;;23.20;81.30;;;;;;4980431;28;19930;-83
2022/08/04 10:21:53;;;;;;;;;;;23.20;81.20;;;;;;4977688;28;19933;-84
2022/08/04 10:24:45;;;;;;;;;;;23.20;80.90;;;;;;4964874;28;19926;-85
2022/08/04 10:27:24;;;;;;;;;;;23.30;80.80;;;;;;4964086;28;19934;-86
2022/08/04 10:29:55;;;;;;;;;;;23.40;80.80;;;;;;4950346;28;19930;-84
2022/08/04 10:32:43;;;;;;;;;;;23.50;80.70;;;;;;4949395;28;19930;-84
2022/08/04 10:35:16;;;;;;;;;;;23.60;79.80;;;;;;4967332;28;19948;-87
2022/08/04 10:38:14;;;;;;;;;;;23.70;79.60;;;;;;4949466;28;19941;-88
2022/08/04 10:40:55;;;;;;;;;;;23.70;80.10;;;;;;4950597;28;20325;-85
2022/08/04 10:43:42;;;;;;;;;;;24.00;80.30;;;;;;4981793;28;20412;-85
2022/08/04 10:46:18;;;;;;;;;;;23.70;79.80;;;;;;4964724;28;19926;-86
2022/08/04 10:48:54;;;;;;;;;;;23.90;79.60;;;;;;4968276;28;19929;-85
2022/08/04 10:51:25;;;;;;;;;;;24.00;79.10;;;;;;4969592;28;19930;-85
2022/08/04 10:53:58;;;;;;;;;;;23.90;79.80;;;;;;4946910;28;20041;-84
2022/08/04 10:56:31;;;;;;;;;;;23.80;79.10;;;;;;4965526;28;20429;-84
2022/08/04 10:59:03;;;;;;;;;;;23.70;78.60;;;;;;4966511;28;19961;-84
2022/08/04 11:01:41;;;;;;;;;;;23.60;78.80;;;;;;4950502;28;19938;-84
2022/08/04 11:04:56;;;;;;;;;;;23.60;78.20;;;;;;4967253;28;19934;-83
2022/08/04 11:07:27;;;;;;;;;;;23.70;78.60;;;;;;4961168;28;20034;-84
2022/08/04 11:09:54;;;;;;;;;;;23.90;78.70;;;;;;4969463;28;19926;-86
2022/08/04 11:12:24;;;;;;;;;;;23.90;78.20;;;;;;4971174;28;19954;-86
2022/08/04 11:15:05;;;;;;;;;;;23.90;78.60;;;;;;4969695;28;19934;-85
2022/08/04 11:17:40;;;;;;;;;;;24.00;77.30;;;;;;4969584;28;19942;-85
2022/08/04 11:20:28;;;;;;;;;;;24.10;77.50;;;;;;4971151;28;19937;-84
2022/08/04 11:23:04;;;;;;;;;;;24.30;77.20;;;;;;4969343;28;20301;-84
2022/08/04 11:25:40;;;;;;;;;;;24.60;76.30;;;;;;4962844;28;19937;-84
2022/08/04 11:28:20;;;;;;;;;;;24.70;76.20;;;;;;4981617;28;19964;-84
2022/08/04 11:30:57;;;;;;;;;;;25.00;76.00;;;;;;4982031;28;19941;-85
2022/08/04 11:33:28;;;;;;;;;;;25.30;76.00;;;;;;4967249;28;20432;-87
2022/08/04 11:36:02;;;;;;;;;;;25.40;74.20;;;;;;4969356;28;19926;-86
2022/08/04 11:38:31;;;;;;;;;;;25.30;74.70;;;;;;4967603;28;19937;-86
2022/08/04 11:41:03;;;;;;;;;;;25.20;74.30;;;;;;4969040;28;19926;-87
2022/08/04 11:43:36;;;;;;;;;;;25.20;74.60;;;;;;4966722;28;20294;-86
2022/08/04 11:46:30;;;;;;;;;;;25.00;74.30;;;;;;4963688;28;19930;-87
2022/08/04 11:49:07;;;;;;;;;;;24.80;74.40;;;;;;4951568;28;19926;-85
2022/08/04 11:51:37;;;;;;;;;;;24.80;74.90;;;;;;4947095;28;19958;-85
2022/08/04 11:54:05;;;;;;;;;;;24.80;75.50;;;;;;4949045;28;20305;-85
2022/08/04 11:56:36;;;;;;;;;;;24.70;74.60;;;;;;4966245;28;20311;-85
2022/08/04 11:59:06;;;;;;;;;;;24.50;74.10;;;;;;4951293;28;20310;-84
2022/08/04 12:01:45;;;;;;;;;;;24.50;74.50;;;;;;4967252;28;19938;-84
2022/08/04 12:04:12;;;;;;;;;;;24.60;74.50;;;;;;4968663;28;20390;-84
2022/08/04 12:06:44;;;;;;;;;;;24.90;74.00;;;;;;4963930;28;20045;-85
2022/08/04 12:09:45;;;;;;;;;;;25.20;74.00;;;;;;4947160;28;19937;-85
2022/08/04 12:12:19;;;;;;;;;;;25.80;73.70;;;;;;4966548;28;19926;-86
2022/08/04 12:14:55;;;;;;;;;;;26.20;73.20;;;;;;4962399;28;19957;-85
2022/08/04 12:17:29;;;;;;;;;;;26.50;72.80;;;;;;4965204;28;19931;-85
2022/08/04 12:20:21;;;;;;;;;;;26.70;71.80;;;;;;4964731;28;19941;-87
2022/08/04 12:23:14;;;;;;;;;;;26.80;70.80;;;;;;4968130;28;19930;-85
2022/08/04 12:25:45;;;;;;;;;;;26.80;70.50;;;;;;4933430;28;19926;-84
2022/08/04 12:28:15;;;;;;;;;;;26.90;70.40;;;;;;4969078;28;19941;-85
2022/08/04 12:30:45;;;;;;;;;;;27.10;70.30;;;;;;4967379;28;19931;-88
2022/08/04 12:33:34;;;;;;;;;;;27.20;70.60;;;;;;4964342;28;19950;-86
2022/08/04 12:36:25;;;;;;;;;;;27.30;69.10;;;;;;4962430;28;19926;-86
2022/08/04 12:38:58;;;;;;;;;;;27.30;69.80;;;;;;4978510;28;19930;-85
2022/08/04 12:41:30;;;;;;;;;;;27.20;68.40;;;;;;4964869;28;19941;-85
2022/08/04 12:44:06;;;;;;;;;;;27.10;69.50;;;;;;4967729;28;19934;-85
2022/08/04 12:46:54;;;;;;;;;;;27.00;68.90;;;;;;4969874;28;19937;-85
2022/08/04 12:49:43;;;;;;;;;;;26.80;68.90;;;;;;4973473;28;19934;-85
2022/08/04 12:52:27;;;;;;;;;;;26.70;69.10;;;;;;4972621;28;20655;-86
2022/08/04 12:55:16;;;;;;;;;;;27.00;69.10;;;;;;4970776;28;20001;-85
2022/08/04 12:57:45;;;;;;;;;;;26.80;68.20;;;;;;4971224;28;19930;-85
2022/08/04 13:00:22;;;;;;;;;;;26.90;68.10;;;;;;4970995;28;20384;-84
2022/08/04 13:02:58;;;;;;;;;;;27.00;67.80;;;;;;4966123;28;19934;-86
2022/08/04 13:05:29;;;;;;;;;;;27.20;66.60;;;;;;4933574;28;20464;-87
2022/08/04 13:07:57;;;;;;;;;;;27.40;67.90;;;;;;4973941;28;19937;-86
2022/08/04 13:10:24;;;;;;;;;;;27.70;67.70;;;;;;4969757;28;20409;-87
2022/08/04 13:12:59;;;;;;;;;;;27.90;66.60;;;;;;4968821;28;19933;-85
2022/08/04 13:15:27;;;;;;;;;;;28.00;67.10;;;;;;4965062;28;20369;-85
2022/08/04 13:17:58;;;;;;;;;;;28.00;66.70;;;;;;4950815;28;19930;-86
2022/08/04 13:20:27;;;;;;;;;;;27.90;66.60;;;;;;4969361;28;19934;-85
2022/08/04 13:23:13;;;;;;;;;;;27.70;65.60;;;;;;4966326;28;19926;-85
2022/08/04 13:25:49;;;;;;;;;;;27.50;64.80;;;;;;4967333;28;19927;-86
2022/08/04 13:28:39;;;;;;;;;;;27.40;65.00;;;;;;4967138;28;19933;-86
2022/08/04 13:31:13;;;;;;;;;;;27.40;65.90;;;;;;4970387;28;19930;-84
2022/08/04 13:33:45;;;;;;;;;;;27.60;66.40;;;;;;4952142;28;19930;-87
2022/08/04 13:36:13;;;;;;;;;;;27.80;66.50;;;;;;4968806;28;19926;-86
2022/08/04 13:39:02;;;;;;;;;;;27.80;65.40;;;;;;4967405;28;20317;-86
2022/08/04 13:41:30;;;;;;;;;;;27.80;65.30;;;;;;4969255;28;19930;-86
2022/08/04 13:43:58;;;;;;;;;;;27.70;66.00;;;;;;4973162;28;19930;-86
2022/08/04 13:46:49;;;;;;;;;;;27.60;65.50;;;;;;4977755;28;19926;-87
2022/08/04 13:49:18;;;;;;;;;;;27.60;66.70;;;;;;4993597;28;19926;-86
2022/08/04 13:52:07;;;;;;;;;;;27.60;67.00;;;;;;4966814;28;19945;-86
2022/08/04 13:54:42;;;;;;;;;;;27.50;67.20;;;;;;4971670;28;19930;-87
2022/08/04 13:57:12;;;;;;;;;;;27.60;67.60;;;;;;4971383;28;19941;-86
2022/08/04 13:59:43;;;;;;;;;;;27.90;67.20;;;;;;4970516;28;19937;-85
2022/08/04 14:02:21;;;;;;;;;;;28.10;67.00;;;;;;4966731;28;19933;-88
2022/08/04 14:04:50;;;;;;;;;;;28.20;66.70;;;;;;4973245;28;19945;-87
2022/08/04 14:07:21;;;;;;;;;;;28.20;66.30;;;;;;4970571;28;19930;-87
2022/08/04 14:09:49;;;;;;;;;;;28.40;65.90;;;;;;4978314;28;19930;-89
2022/08/04 14:12:31;;;;;;;;;;;28.70;65.70;;;;;;4978216;28;19926;-90
2022/08/04 14:15:32;;;;;;;;;;;28.70;65.90;;;;;;4975817;28;19934;-87
2022/08/04 14:18:23;;;;;;;;;;;28.60;65.50;;;;;;4970527;28;20321;-87
2022/08/04 14:20:57;;;;;;;;;;;28.30;65.40;;;;;;4972952;28;20013;-87
2022/08/04 14:23:25;;;;;;;;;;;28.10;66.10;;;;;;4977389;28;19926;-86
2022/08/04 14:26:11;;;;;;;;;;;27.90;66.50;;;;;;4971214;28;19926;-86
2022/08/04 14:28:39;;;;;;;;;;;27.90;66.30;;;;;;4970638;28;19934;-87
2022/08/04 14:31:27;;;;;;;;;;;28.00;66.70;;;;;;4981913;28;19937;-87
2022/08/04 14:33:57;;;;;;;;;;;28.00;65.60;;;;;;4980327;28;20010;-86
2022/08/04 14:36:41;;;;;;;;;;;27.70;65.70;;;;;;4973517;28;19966;-87
2022/08/04 14:39:41;;;;;;;;;;;27.50;66.00;;;;;;4974876;28;19930;-85
2022/08/04 14:42:45;;;;;;;;;;;27.50;66.40;;;;;;4969247;28;19934;-86
2022/08/04 14:45:33;;;;;;;;;;;27.60;65.90;;;;;;4962537;28;20408;-87
2022/08/04 14:48:02;;;;;;;;;;;27.80;65.40;;;;;;4967503;28;20512;-86
2022/08/04 14:50:34;;;;;;;;;;;27.90;65.50;;;;;;4962537;28;19937;-85
2022/08/04 14:53:03;;;;;;;;;;;28.00;65.30;;;;;;4963722;28;19933;-86
2022/08/04 14:55:31;;;;;;;;;;;28.30;65.00;;;;;;4963600;28;19933;-87
2022/08/04 14:57:58;;;;;;;;;;;28.60;65.10;;;;;;4962778;28;19953;-85
2022/08/04 15:00:46;;;;;;;;;;;28.90;64.10;;;;;;4964757;28;20302;-85
2022/08/04 15:03:16;;;;;;;;;;;29.10;64.30;;;;;;4945852;28;20417;-84
2022/08/04 15:05:44;;;;;;;;;;;29.00;63.30;;;;;;4965073;28;20516;-85
2022/08/04 15:08:32;;;;;;;;;;;28.80;63.60;;;;;;4964306;28;20417;-85
2022/08/04 15:11:01;;;;;;;;;;;28.60;63.60;;;;;;4967513;28;20029;-85
2022/08/04 15:13:31;;;;;;;;;;;28.30;64.30;;;;;;4965314;28;19934;-85
2022/08/04 15:16:00;;;;;;;;;;;28.00;63.20;;;;;;4961911;28;19942;-85
2022/08/04 15:18:34;;;;;;;;;;;27.80;63.90;;;;;;4962051;28;19934;-86
2022/08/04 15:21:04;;;;;;;;;;;27.60;64.10;;;;;;4979574;28;19927;-85